createdAt,value
2019-01-27T00:00:00.277Z,-2.50
2019-01-27T00:02:30.767Z,-2.50
2019-01-27T00:05:01.281Z,-2.50
2019-01-27T00:07:31.793Z,-2.50
2019-01-27T00:10:02.267Z,-2.60
2019-01-27T00:12:32.775Z,-2.60
2019-01-27T00:15:03.508Z,-2.60
2019-01-27T00:17:34.061Z,-2.60
2019-01-27T00:20:07.843Z,-2.60
2019-01-27T00:22:38.340Z,-2.60
2019-01-27T00:25:09.349Z,-2.60
2019-01-27T00:27:39.946Z,-2.60
2019-01-27T00:30:37.398Z,-2.60
2019-01-27T00:33:07.878Z,-2.60
2019-01-27T00:35:38.375Z,-2.60
2019-01-27T00:38:08.843Z,-2.50
2019-01-27T00:40:39.341Z,-2.50
2019-01-27T00:43:09.902Z,-2.50
2019-01-27T00:45:40.464Z,-2.50
2019-01-27T00:48:11.719Z,-2.50
2019-01-27T00:50:42.209Z,-2.50
2019-01-27T00:53:12.678Z,-2.50
2019-01-27T00:55:43.221Z,-2.50
2019-01-27T00:58:13.849Z,-2.60
2019-01-27T01:00:44.355Z,-2.60
2019-01-27T01:03:14.824Z,-2.60
2019-01-27T01:05:45.384Z,-2.60
2019-01-27T01:08:16.046Z,-2.60
2019-01-27T01:10:46.594Z,-2.50
2019-01-27T01:13:17.161Z,-2.60
2019-01-27T01:15:47.694Z,-2.50
2019-01-27T01:18:18.269Z,-2.50
2019-01-27T01:20:48.737Z,-2.50
2019-01-27T01:23:19.303Z,-2.50
2019-01-27T01:25:49.871Z,-2.50
2019-01-27T01:28:20.480Z,-2.50
2019-01-27T01:30:50.989Z,-2.50
2019-01-27T01:33:21.570Z,-2.50
2019-01-27T01:35:52.133Z,-2.50
2019-01-27T01:38:22.607Z,-2.40
2019-01-27T01:40:53.108Z,-2.50
2019-01-27T01:43:23.590Z,-2.40
2019-01-27T01:45:54.086Z,-2.50
2019-01-27T01:48:24.730Z,-2.50
2019-01-27T01:50:55.193Z,-2.60
2019-01-27T01:53:25.757Z,-2.60
2019-01-27T01:55:56.237Z,-2.60
2019-01-27T01:58:26.815Z,-2.60
2019-01-27T02:00:57.292Z,-2.60
2019-01-27T02:03:27.787Z,-2.60
2019-01-27T02:05:58.291Z,-2.60
2019-01-27T02:08:28.903Z,-2.60
2019-01-27T02:10:59.432Z,-2.60
2019-01-27T02:13:29.910Z,-2.60
2019-01-27T02:16:02.925Z,-2.60
2019-01-27T02:18:34.026Z,-2.60
2019-01-27T02:21:05.430Z,-2.60
2019-01-27T02:23:36.064Z,-2.60
2019-01-27T02:26:06.880Z,-2.60
2019-01-27T02:28:37.662Z,-2.60
2019-01-27T02:31:08.359Z,-2.60
2019-01-27T02:33:38.927Z,-2.60
2019-01-27T02:36:09.406Z,-2.50
2019-01-27T02:38:39.918Z,-2.50
2019-01-27T02:41:10.460Z,-2.50
2019-01-27T02:43:40.972Z,-2.50
2019-01-27T02:46:11.464Z,-2.50
2019-01-27T02:48:41.930Z,-2.50
2019-01-27T02:51:12.421Z,-2.60
2019-01-27T02:53:42.889Z,-2.60
2019-01-27T02:56:13.464Z,-2.60
2019-01-27T02:58:43.930Z,-2.70
2019-01-27T03:01:14.429Z,-2.70
2019-01-27T03:03:44.970Z,-2.70
2019-01-27T03:06:23.094Z,-2.70
2019-01-27T03:08:55.281Z,-2.70
2019-01-27T03:11:25.928Z,-2.70
2019-01-27T03:13:56.400Z,-2.70
2019-01-27T03:16:26.905Z,-2.70
2019-01-27T03:18:57.409Z,-2.70
2019-01-27T03:21:27.884Z,-2.70
2019-01-27T03:23:58.387Z,-2.70
2019-01-27T03:26:28.854Z,-2.60
2019-01-27T03:28:59.359Z,-2.60
2019-01-27T03:31:29.844Z,-2.60
2019-01-27T03:34:00.346Z,-2.60
2019-01-27T03:36:30.811Z,-2.60
2019-01-27T03:39:01.334Z,-2.60
2019-01-27T03:41:31.874Z,-2.60
2019-01-27T03:44:02.390Z,-2.60
2019-01-27T03:46:32.866Z,-2.60
2019-01-27T03:49:03.435Z,-2.60
2019-01-27T03:51:34.702Z,-2.60
2019-01-27T03:54:06.820Z,-2.70
2019-01-27T03:56:37.392Z,-2.70
2019-01-27T03:59:08.227Z,-2.60
2019-01-27T04:01:38.768Z,-2.60
2019-01-27T04:04:09.408Z,-2.60
2019-01-27T04:06:39.991Z,-2.60
2019-01-27T04:09:10.619Z,-2.60
2019-01-27T04:11:41.135Z,-2.60
2019-01-27T04:14:11.683Z,-2.60
2019-01-27T04:16:42.186Z,-2.60
2019-01-27T04:19:12.826Z,-2.60
2019-01-27T04:21:43.304Z,-2.60
2019-01-27T04:24:13.803Z,-2.60
2019-01-27T04:26:44.286Z,-2.60
2019-01-27T04:29:14.801Z,-2.50
2019-01-27T04:31:45.297Z,-2.50
2019-01-27T04:34:15.872Z,-2.50
2019-01-27T04:36:46.354Z,-2.50
2019-01-27T04:39:16.878Z,-2.50
2019-01-27T04:41:47.437Z,-2.60
2019-01-27T04:44:19.579Z,-2.60
2019-01-27T04:46:50.090Z,-2.60
2019-01-27T04:49:20.553Z,-2.60
2019-01-27T04:51:51.056Z,-2.60
2019-01-27T04:54:21.545Z,-2.50
2019-01-27T04:56:52.121Z,-2.50
2019-01-27T04:59:22.615Z,-2.50
2019-01-27T05:01:53.117Z,-2.50
2019-01-27T05:04:25.248Z,-2.40
2019-01-27T05:06:55.706Z,-2.40
2019-01-27T05:09:26.199Z,-2.40
2019-01-27T05:11:56.678Z,-2.50
2019-01-27T05:14:27.193Z,-2.50
2019-01-27T05:16:57.668Z,-2.40
2019-01-27T05:19:28.167Z,-2.40
2019-01-27T05:21:58.670Z,-2.40
2019-01-27T05:24:29.153Z,-2.40
2019-01-27T05:26:59.651Z,-2.40
2019-01-27T05:29:30.123Z,-2.40
2019-01-27T05:32:00.629Z,-2.50
2019-01-27T05:34:31.376Z,-2.50
2019-01-27T05:37:01.877Z,-2.50
2019-01-27T05:39:32.368Z,-2.50
2019-01-27T05:42:02.868Z,-2.50
2019-01-27T05:44:33.341Z,-2.50
2019-01-27T05:47:04.504Z,-2.50
2019-01-27T05:49:35.012Z,-2.50
2019-01-27T05:52:05.858Z,-2.50
2019-01-27T05:54:36.333Z,-2.50
2019-01-27T05:57:06.827Z,-2.50
2019-01-27T05:59:37.298Z,-2.50
2019-01-27T06:02:07.842Z,-2.40
2019-01-27T06:04:38.322Z,-2.40
2019-01-27T06:07:08.833Z,-2.40
2019-01-27T06:09:39.362Z,-2.40
2019-01-27T06:12:09.860Z,-2.30
2019-01-27T06:14:40.367Z,-2.30
2019-01-27T06:17:10.830Z,-2.30
2019-01-27T06:19:41.333Z,-2.30
2019-01-27T06:22:11.878Z,-2.20
2019-01-27T06:24:42.380Z,-2.20
2019-01-27T06:27:12.997Z,-2.30
2019-01-27T06:29:43.559Z,-2.20
2019-01-27T06:32:15.679Z,-2.30
2019-01-27T06:34:46.194Z,-2.30
2019-01-27T06:37:16.673Z,-2.30
2019-01-27T06:39:47.166Z,-2.30
2019-01-27T06:42:17.663Z,-2.40
2019-01-27T06:44:48.138Z,-2.40
2019-01-27T06:47:18.644Z,-2.40
2019-01-27T06:49:49.123Z,-2.40
2019-01-27T06:52:19.621Z,-2.40
2019-01-27T06:54:50.097Z,-2.40
2019-01-27T06:57:20.595Z,-2.40
2019-01-27T06:59:52.729Z,-2.30
2019-01-27T07:02:29.510Z,-2.30
2019-01-27T07:04:58.804Z,-2.40
2019-01-27T07:07:36.928Z,-2.30
2019-01-27T07:10:11.099Z,-2.30
2019-01-27T07:12:51.839Z,-2.30
2019-01-27T07:15:30.969Z,-2.30
2019-01-27T07:18:19.739Z,-2.40
2019-01-27T07:20:57.626Z,-2.40
2019-01-27T07:23:38.283Z,-2.30
2019-01-27T07:26:10.407Z,-2.30
2019-01-27T07:28:45.496Z,-2.30
2019-01-27T07:31:35.802Z,-2.20
2019-01-27T07:34:11.927Z,-2.20
2019-01-27T07:36:53.126Z,-2.10
2019-01-27T07:39:34.123Z,-2.10
2019-01-27T07:42:15.617Z,-2.00
2019-01-27T07:44:47.732Z,-2.00
2019-01-27T07:47:28.832Z,-1.90
2019-01-27T07:50:03.648Z,-1.80
2019-01-27T07:52:41.997Z,-1.70
2019-01-27T07:55:12.915Z,-1.60
2019-01-27T07:57:50.921Z,-1.60
2019-01-27T08:00:29.388Z,-1.50
2019-01-27T08:03:12.040Z,-1.50
2019-01-27T08:05:44.704Z,-1.40
2019-01-27T08:08:29.074Z,-1.40
2019-01-27T08:11:08.488Z,-1.40
2019-01-27T08:13:46.280Z,-1.40
2019-01-27T08:16:22.347Z,-1.40
2019-01-27T08:19:10.606Z,-1.40
2019-01-27T08:21:51.939Z,-1.40
2019-01-27T08:24:29.605Z,-1.40
2019-01-27T08:27:13.458Z,-1.30
2019-01-27T08:29:54.820Z,-1.30
2019-01-27T08:32:32.723Z,-1.30
2019-01-27T08:35:09.050Z,-1.30
2019-01-27T08:37:41.193Z,-1.30
2019-01-27T08:40:29.436Z,-1.20
2019-01-27T08:43:07.276Z,-1.20
2019-01-27T08:45:51.202Z,-1.10
2019-01-27T08:48:21.698Z,-1.10
2019-01-27T08:50:55.007Z,-1.00
2019-01-27T08:53:25.504Z,-0.90
2019-01-27T08:55:56.009Z,-1.00
2019-01-27T08:58:26.477Z,-0.90
2019-01-27T09:00:58.617Z,-0.90
2019-01-27T09:03:30.725Z,-0.90
2019-01-27T09:06:15.009Z,-0.90
2019-01-27T09:08:49.844Z,-1.10
2019-01-27T09:11:31.184Z,-1.10
2019-01-27T09:14:03.326Z,-1.10
2019-01-27T09:16:39.556Z,-1.00
2019-01-27T09:19:20.347Z,-1.00
2019-01-27T09:21:55.528Z,-0.90
2019-01-27T09:24:40.700Z,-0.80
2019-01-27T09:27:22.150Z,-0.70
2019-01-27T09:30:09.349Z,-0.60
2019-01-27T09:32:57.582Z,-0.60
2019-01-27T09:35:51.526Z,-0.60
2019-01-27T09:38:39.734Z,-0.60
2019-01-27T09:41:11.904Z,-0.60
2019-01-27T09:43:47.190Z,-0.60
2019-01-27T09:46:29.446Z,-0.60
2019-01-27T09:49:04.263Z,-0.60
2019-01-27T09:51:36.409Z,-0.50
2019-01-27T09:54:18.239Z,-0.50
2019-01-27T09:56:56.200Z,-0.40
2019-01-27T09:59:40.997Z,-0.40
2019-01-27T10:02:34.775Z,-0.30
2019-01-27T10:05:26.570Z,-0.30
2019-01-27T10:08:01.403Z,-0.30
2019-01-27T10:10:49.783Z,-0.30
2019-01-27T10:13:21.939Z,-0.20
2019-01-27T10:15:57.050Z,-0.20
2019-01-27T10:18:31.783Z,-0.10
2019-01-27T10:23:57.973Z,-0.10
2019-01-27T10:26:30.115Z,-0.10
2019-01-27T10:29:05.152Z,0.00
2019-01-27T10:31:39.975Z,0.00
2019-01-27T10:34:27.389Z,0.00
2019-01-27T10:36:59.527Z,0.00
2019-01-27T10:39:31.702Z,0.00
2019-01-27T10:42:06.912Z,0.00
2019-01-27T10:44:45.070Z,0.00
2019-01-27T10:47:23.330Z,0.00
2019-01-27T10:50:06.960Z,-0.10
2019-01-27T10:52:48.284Z,-0.10
2019-01-27T10:55:32.304Z,-0.10
2019-01-27T10:58:10.116Z,-0.10
2019-01-27T11:00:54.287Z,0.00
2019-01-27T11:03:42.259Z,0.00
2019-01-27T11:06:14.369Z,-0.10
2019-01-27T11:08:46.496Z,-0.10
2019-01-27T11:11:26.819Z,-0.10
2019-01-27T11:14:13.944Z,-0.10
2019-01-27T11:17:01.156Z,-0.10
2019-01-27T11:19:45.463Z,0.00
2019-01-27T11:22:29.720Z,0.00
2019-01-27T11:25:10.839Z,-0.10
2019-01-27T11:27:42.942Z,-0.10
2019-01-27T11:30:24.366Z,-0.10
2019-01-27T11:32:56.471Z,-0.10
2019-01-27T11:35:28.696Z,-0.10
2019-01-27T11:38:01.784Z,0.00
2019-01-27T11:40:50.327Z,0.00
2019-01-27T11:43:34.098Z,0.00
2019-01-27T11:46:07.579Z,0.10
2019-01-27T11:48:48.695Z,0.10
2019-01-27T11:51:22.377Z,0.10
2019-01-27T11:53:52.867Z,0.00
2019-01-27T11:56:23.329Z,0.00
2019-01-27T11:58:53.860Z,0.10
2019-01-27T12:01:24.351Z,0.10
2019-01-27T12:03:54.817Z,0.10
2019-01-27T12:06:25.454Z,0.10
2019-01-27T12:08:55.918Z,0.20
2019-01-27T12:11:26.415Z,0.20
2019-01-27T12:13:56.878Z,0.30
2019-01-27T12:16:27.373Z,0.30
2019-01-27T12:18:57.847Z,0.40
2019-01-27T12:21:28.340Z,0.50
2019-01-27T12:23:58.804Z,0.50
2019-01-27T12:26:29.297Z,0.60
2019-01-27T12:28:59.765Z,0.60
2019-01-27T12:31:30.256Z,0.70
2019-01-27T12:34:00.718Z,0.60
2019-01-27T12:36:31.379Z,0.70
2019-01-27T12:39:01.891Z,0.60
2019-01-27T12:41:32.383Z,0.70
2019-01-27T12:44:02.879Z,0.70
2019-01-27T12:46:33.356Z,0.80
2019-01-27T12:49:03.935Z,0.80
2019-01-27T12:51:34.402Z,0.80
2019-01-27T12:54:05.147Z,0.80
2019-01-27T12:56:35.643Z,0.70
2019-01-27T12:59:06.243Z,0.70
2019-01-27T13:01:36.808Z,0.70
2019-01-27T13:04:07.465Z,0.80
2019-01-27T13:06:37.939Z,0.80
2019-01-27T13:09:08.881Z,0.80
2019-01-27T13:11:39.365Z,0.80
2019-01-27T13:14:09.833Z,0.80
2019-01-27T13:16:40.294Z,0.90
2019-01-27T13:19:11.757Z,0.80
2019-01-27T13:21:42.241Z,0.80
2019-01-27T13:24:12.720Z,0.80
2019-01-27T13:26:43.212Z,0.80
2019-01-27T13:29:13.678Z,0.90
2019-01-27T13:31:44.170Z,1.00
2019-01-27T13:34:14.640Z,1.00
2019-01-27T13:36:45.197Z,1.00
2019-01-27T13:39:15.659Z,1.00
2019-01-27T13:41:46.159Z,1.10
2019-01-27T13:44:16.615Z,1.10
2019-01-27T13:46:47.113Z,1.10
2019-01-27T13:49:17.605Z,1.10
2019-01-27T13:51:48.068Z,1.10
2019-01-27T13:54:18.557Z,1.00
2019-01-27T13:56:49.044Z,1.00
2019-01-27T13:59:19.542Z,1.00
2019-01-27T14:01:50.051Z,1.00
2019-01-27T14:04:20.602Z,0.90
2019-01-27T14:06:52.630Z,0.80
2019-01-27T14:09:23.093Z,0.70
2019-01-27T14:11:53.585Z,0.60
2019-01-27T14:14:24.044Z,0.60
2019-01-27T14:16:55.576Z,0.60
2019-01-27T14:19:26.059Z,0.60
2019-01-27T14:21:56.541Z,0.60
2019-01-27T14:24:26.995Z,0.60
2019-01-27T14:26:57.504Z,0.50
2019-01-27T14:29:27.949Z,0.50
2019-01-27T14:31:58.454Z,0.50
2019-01-27T14:34:28.909Z,0.50
2019-01-27T14:36:59.426Z,0.60
2019-01-27T14:39:29.881Z,0.60
2019-01-27T14:42:00.383Z,0.60
2019-01-27T14:44:31.795Z,0.60
2019-01-27T14:47:02.279Z,0.60
2019-01-27T14:49:32.738Z,0.60
2019-01-27T14:52:03.325Z,0.60
2019-01-27T14:54:33.785Z,0.60
2019-01-27T14:57:04.263Z,0.60
2019-01-27T14:59:34.727Z,0.60
2019-01-27T15:02:07.003Z,0.60
2019-01-27T15:04:37.504Z,0.50
2019-01-27T15:07:08.031Z,0.50
2019-01-27T15:09:38.514Z,0.50
2019-01-27T15:12:08.974Z,0.50
2019-01-27T15:14:39.465Z,0.50
2019-01-27T15:17:09.947Z,0.40
2019-01-27T15:19:40.443Z,0.40
2019-01-27T15:22:10.943Z,0.40
2019-01-27T15:24:41.415Z,0.40
2019-01-27T15:27:11.908Z,0.30
2019-01-27T15:29:42.456Z,0.30
2019-01-27T15:32:13.016Z,0.20
2019-01-27T15:34:43.526Z,0.20
2019-01-27T15:37:14.473Z,0.10
2019-01-27T15:39:44.959Z,0.10
2019-01-27T15:42:15.460Z,0.10
2019-01-27T15:44:45.946Z,0.10
2019-01-27T15:47:18.080Z,0.10
2019-01-27T15:49:48.542Z,0.10
2019-01-27T15:52:19.027Z,0.10
2019-01-27T15:54:49.521Z,0.10
2019-01-27T15:57:19.971Z,0.10
2019-01-27T15:59:50.494Z,0.10
2019-01-27T16:02:20.947Z,0.10
2019-01-27T16:04:51.477Z,0.10
2019-01-27T16:07:21.968Z,0.10
2019-01-27T16:09:57.296Z,0.10
2019-01-27T16:12:24.735Z,0.00
2019-01-27T16:14:55.291Z,0.00
2019-01-27T16:17:25.770Z,0.00
2019-01-27T16:19:56.335Z,-0.10
2019-01-27T16:22:26.853Z,-0.10
2019-01-27T16:24:57.366Z,-0.10
2019-01-27T16:27:27.834Z,-0.10
2019-01-27T16:30:00.013Z,-0.10
2019-01-27T16:32:30.579Z,-0.20
2019-01-27T16:35:01.113Z,-0.20
2019-01-27T16:37:31.683Z,-0.10
2019-01-27T16:40:02.230Z,-0.20
2019-01-27T16:42:32.733Z,-0.20
2019-01-27T16:45:03.482Z,-0.20
2019-01-27T16:47:34.028Z,-0.10
2019-01-27T16:50:07.530Z,-0.20
2019-01-27T16:52:38.003Z,-0.20
2019-01-27T16:55:13.249Z,-0.20
2019-01-27T16:57:43.866Z,-0.20
2019-01-27T17:00:27.652Z,-0.20
2019-01-27T17:02:58.124Z,-0.20
2019-01-27T17:05:28.686Z,-0.20
2019-01-27T17:07:59.357Z,-0.20
2019-01-27T17:10:30.609Z,-0.20
2019-01-27T17:13:01.138Z,-0.20
2019-01-27T17:15:31.777Z,-0.20
2019-01-27T17:18:02.309Z,-0.20
2019-01-27T17:20:32.807Z,-0.20
2019-01-27T17:23:03.278Z,-0.20
2019-01-27T17:25:33.774Z,-0.20
2019-01-27T17:28:04.339Z,-0.20
2019-01-27T17:30:34.944Z,-0.20
2019-01-27T17:33:05.510Z,-0.20
2019-01-27T17:35:36.046Z,-0.20
2019-01-27T17:38:06.607Z,-0.10
2019-01-27T17:40:37.120Z,-0.10
2019-01-27T17:43:07.617Z,-0.10
2019-01-27T17:45:38.076Z,-0.10
2019-01-27T17:48:09.263Z,-0.10
2019-01-27T17:50:39.889Z,-0.10
2019-01-27T17:53:10.356Z,-0.20
2019-01-27T17:55:42.636Z,-0.20
2019-01-27T17:58:22.246Z,-0.30
2019-01-27T18:00:55.364Z,-0.30
2019-01-27T18:03:43.412Z,-0.20
2019-01-27T18:06:30.909Z,-0.10
2019-01-27T18:09:16.264Z,-0.20
2019-01-27T18:11:57.204Z,-0.20
2019-01-27T18:14:29.353Z,-0.20
2019-01-27T18:16:59.815Z,-0.20
2019-01-27T18:19:30.290Z,-0.20
2019-01-27T18:22:01.006Z,-0.20
2019-01-27T18:24:32.810Z,-0.20
2019-01-27T18:27:03.389Z,-0.20
2019-01-27T18:29:35.440Z,-0.20
2019-01-27T18:32:05.987Z,-0.10
2019-01-27T18:34:36.480Z,-0.10
2019-01-27T18:37:07.002Z,-0.10
2019-01-27T18:39:37.518Z,-0.10
2019-01-27T18:42:08.831Z,-0.10
2019-01-27T18:44:41.071Z,-0.10
2019-01-27T18:47:11.547Z,-0.10
2019-01-27T18:49:42.066Z,-0.10
2019-01-27T18:52:12.537Z,-0.20
2019-01-27T18:54:44.686Z,-0.20
2019-01-27T18:57:19.798Z,-0.10
2019-01-27T19:00:03.880Z,-0.10
2019-01-27T19:02:36.017Z,-0.10
2019-01-27T19:05:17.937Z,-0.10
2019-01-27T19:07:58.728Z,-0.10
2019-01-27T19:10:30.821Z,-0.10
2019-01-27T19:13:03.029Z,-0.10
2019-01-27T19:15:45.044Z,-0.10
2019-01-27T19:18:20.265Z,-0.10
2019-01-27T19:21:04.435Z,-0.10
2019-01-27T19:23:53.111Z,-0.10
2019-01-27T19:26:41.470Z,-0.10
2019-01-27T19:29:22.034Z,-0.10
2019-01-27T19:31:54.239Z,-0.10
2019-01-27T19:34:35.220Z,-0.10
2019-01-27T19:37:08.531Z,-0.10
2019-01-27T19:39:40.653Z,-0.20
2019-01-27T19:42:28.857Z,-0.20
2019-01-27T19:45:09.676Z,-0.20
2019-01-27T19:47:41.814Z,-0.20
2019-01-27T19:50:22.905Z,-0.20
2019-01-27T19:52:57.445Z,-0.20
2019-01-27T19:55:32.296Z,-0.10
2019-01-27T19:58:11.588Z,-0.10
2019-01-27T20:01:01.844Z,-0.10
2019-01-27T20:03:36.460Z,-0.20
2019-01-27T20:06:24.371Z,-0.10
2019-01-27T20:08:59.701Z,-0.10
2019-01-27T20:11:37.845Z,-0.10
2019-01-27T20:14:09.991Z,0.00
2019-01-27T20:16:44.828Z,0.00
2019-01-27T20:19:31.905Z,0.00
2019-01-27T20:22:06.495Z,0.00
2019-01-27T20:24:44.126Z,0.00
2019-01-27T20:27:16.287Z,0.10
2019-01-27T20:30:00.463Z,0.10
2019-01-27T20:32:47.946Z,0.10
2019-01-27T20:35:34.811Z,0.10
2019-01-27T20:38:07.017Z,0.10
2019-01-27T20:40:39.133Z,0.10
2019-01-27T20:43:16.974Z,0.10
2019-01-27T20:45:51.736Z,0.00
2019-01-27T20:48:41.879Z,0.00
2019-01-27T20:51:19.725Z,0.00
2019-01-27T20:53:57.740Z,-0.10
2019-01-27T20:56:29.852Z,-0.10
2019-01-27T20:59:02.067Z,-0.20
2019-01-27T21:01:36.702Z,-0.20
2019-01-27T21:04:11.827Z,-0.20
2019-01-27T21:06:49.986Z,-0.20
2019-01-27T21:09:25.143Z,-0.10
2019-01-27T21:11:57.294Z,-0.10
2019-01-27T21:14:35.213Z,-0.10
2019-01-27T21:17:08.816Z,-0.10
2019-01-27T21:19:40.986Z,-0.10
2019-01-27T21:22:11.651Z,-0.10
2019-01-27T21:24:42.162Z,-0.10
2019-01-27T21:27:12.670Z,0.00
2019-01-27T21:29:43.139Z,0.00
2019-01-27T21:32:13.640Z,0.00
2019-01-27T21:34:44.147Z,0.10
2019-01-27T21:37:14.679Z,0.10
2019-01-27T21:39:45.175Z,0.10
2019-01-27T21:42:15.692Z,0.10
2019-01-27T21:44:46.133Z,0.10
2019-01-27T21:47:16.642Z,0.10
2019-01-27T21:49:47.149Z,0.00
2019-01-27T21:52:17.736Z,0.00
2019-01-27T21:54:48.346Z,0.10
2019-01-27T21:57:18.794Z,0.10
2019-01-27T21:59:49.300Z,0.10
2019-01-27T22:02:22.180Z,0.10
2019-01-27T22:04:52.693Z,0.10
2019-01-27T22:07:23.284Z,0.10
2019-01-27T22:09:53.752Z,0.10
2019-01-27T22:12:24.331Z,0.00
2019-01-27T22:14:54.795Z,0.00
2019-01-27T22:17:25.373Z,0.00
2019-01-27T22:19:55.898Z,0.00
2019-01-27T22:22:26.367Z,0.00
2019-01-27T22:24:56.869Z,0.00
2019-01-27T22:27:27.399Z,0.00
2019-01-27T22:29:59.467Z,-0.10
2019-01-27T22:32:29.930Z,-0.10
2019-01-27T22:35:00.439Z,-0.10
2019-01-27T22:37:30.915Z,-0.10
2019-01-27T22:40:01.487Z,-0.10
2019-01-27T22:42:31.950Z,-0.10
2019-01-27T22:45:02.455Z,-0.10
2019-01-27T22:47:32.923Z,-0.10
2019-01-27T22:50:04.566Z,-0.20
2019-01-27T22:52:35.099Z,-0.10
2019-01-27T22:55:08.109Z,-0.10
2019-01-27T22:57:38.646Z,-0.10
2019-01-27T23:00:34.790Z,-0.10
2019-01-27T23:03:06.328Z,-0.10
2019-01-27T23:05:36.825Z,-0.20
2019-01-27T23:08:07.321Z,-0.10
2019-01-27T23:10:37.788Z,-0.10
2019-01-27T23:13:08.332Z,-0.10
2019-01-27T23:15:38.791Z,-0.10
2019-01-27T23:18:09.364Z,-0.10
2019-01-27T23:20:39.824Z,-0.10
2019-01-27T23:23:10.333Z,-0.10
2019-01-27T23:25:40.842Z,-0.20
2019-01-27T23:28:11.306Z,-0.20
2019-01-27T23:30:41.823Z,-0.20
2019-01-27T23:33:12.282Z,-0.20
2019-01-27T23:35:42.794Z,-0.20
2019-01-27T23:38:13.260Z,-0.20
2019-01-27T23:40:43.769Z,-0.10
2019-01-27T23:43:14.278Z,-0.10
2019-01-27T23:45:44.799Z,-0.10
2019-01-27T23:48:15.333Z,-0.10
2019-01-27T23:50:45.862Z,-0.10
2019-01-27T23:53:16.328Z,-0.10
2019-01-27T23:55:46.832Z,-0.10
2019-01-27T23:58:17.298Z,-0.10
